createdAt,value
2023-04-20T00:00:40.001Z,100.00
2023-04-20T00:07:24.778Z,100.00
2023-04-20T00:14:08.533Z,100.00
2023-04-20T00:20:50.682Z,100.00
2023-04-20T00:27:33.007Z,100.00
2023-04-20T00:34:16.150Z,100.00
2023-04-20T00:40:58.616Z,100.00
2023-04-20T00:47:41.182Z,100.00
2023-04-20T00:54:23.760Z,100.00
2023-04-20T01:01:06.039Z,100.00
2023-04-20T01:07:48.205Z,100.00
2023-04-20T01:14:30.568Z,100.00
2023-04-20T01:21:15.013Z,100.00
2023-04-20T01:27:57.230Z,100.00
2023-04-20T01:34:39.442Z,100.00
2023-04-20T01:41:21.852Z,100.00
2023-04-20T01:48:04.439Z,100.00
2023-04-20T01:54:48.242Z,100.00
2023-04-20T02:01:30.529Z,100.00
2023-04-20T02:08:12.728Z,100.00
2023-04-20T02:14:55.387Z,100.00
2023-04-20T02:21:39.745Z,100.00
2023-04-20T02:28:22.018Z,100.00
2023-04-20T02:35:04.679Z,100.00
2023-04-20T02:41:47.716Z,100.00
2023-04-20T02:48:29.989Z,100.00
2023-04-20T02:55:12.266Z,100.00
2023-04-20T03:01:57.428Z,100.00
2023-04-20T03:08:41.145Z,100.00
2023-04-20T03:15:44.266Z,100.00
2023-04-20T03:22:39.271Z,100.00
2023-04-20T03:29:22.695Z,100.00
2023-04-20T03:36:06.386Z,100.00
2023-04-20T03:42:48.673Z,100.00
2023-04-20T03:49:31.126Z,100.00
2023-04-20T03:56:13.380Z,100.00
2023-04-20T04:02:55.834Z,100.00
2023-04-20T04:09:42.788Z,100.00
2023-04-20T04:16:26.768Z,100.00
2023-04-20T04:23:10.027Z,100.00
2023-04-20T04:29:58.318Z,100.00
2023-04-20T04:36:40.700Z,100.00
2023-04-20T04:43:27.577Z,100.00
2023-04-20T04:50:21.811Z,100.00
2023-04-20T04:57:04.210Z,100.00
2023-04-20T05:03:46.690Z,100.00
2023-04-20T05:10:28.975Z,100.00
2023-04-20T05:17:12.032Z,100.00
2023-04-20T05:23:54.187Z,100.00
2023-04-20T05:30:36.337Z,100.00
2023-04-20T05:37:18.539Z,100.00
2023-04-20T05:44:00.898Z,100.00
2023-04-20T05:50:43.069Z,100.00
2023-04-20T05:57:25.379Z,100.00
2023-04-20T06:04:07.773Z,100.00
2023-04-20T06:10:58.106Z,100.00
2023-04-20T06:17:41.061Z,100.00
2023-04-20T06:24:23.934Z,100.00
2023-04-20T06:31:06.850Z,96.79
2023-04-20T06:37:49.396Z,93.58
2023-04-20T06:44:31.524Z,91.29
2023-04-20T06:51:14.263Z,91.02
2023-04-20T06:57:56.433Z,91.84
2023-04-20T07:04:38.677Z,89.33
2023-04-20T07:11:20.917Z,83.00
2023-04-20T07:18:03.355Z,82.92
2023-04-20T07:24:45.968Z,83.24
2023-04-20T07:31:28.214Z,83.30
2023-04-20T07:38:11.133Z,80.11
2023-04-20T07:44:53.344Z,78.93
2023-04-20T07:51:36.091Z,77.32
2023-04-20T07:58:18.554Z,76.44
2023-04-20T08:05:03.533Z,76.14
2023-04-20T08:11:46.346Z,75.03
2023-04-20T08:18:30.602Z,74.88
2023-04-20T08:25:12.804Z,73.26
2023-04-20T08:31:55.021Z,72.58
2023-04-20T08:38:37.463Z,72.87
2023-04-20T08:45:19.675Z,74.22
2023-04-20T08:52:01.841Z,73.00
2023-04-20T08:58:44.024Z,72.03
2023-04-20T09:05:31.653Z,72.19
2023-04-20T09:12:14.024Z,72.89
2023-04-20T09:18:57.498Z,72.78
2023-04-20T09:25:41.160Z,72.18
2023-04-20T09:32:24.429Z,70.12
2023-04-20T09:39:11.576Z,68.53
2023-04-20T09:45:54.802Z,66.30
2023-04-20T09:52:38.859Z,64.13
2023-04-20T09:59:22.282Z,62.31
2023-04-20T10:06:05.007Z,62.02
2023-04-20T10:12:57.203Z,62.59
2023-04-20T10:19:44.275Z,62.93
2023-04-20T10:26:37.815Z,60.71
2023-04-20T10:33:20.266Z,61.59
2023-04-20T10:40:07.542Z,62.79
2023-04-20T10:46:51.673Z,61.69
2023-04-20T10:53:33.843Z,60.35
2023-04-20T11:00:29.634Z,58.20
2023-04-20T11:07:15.001Z,57.18
2023-04-20T11:14:10.384Z,58.21
2023-04-20T11:20:56.239Z,56.61
2023-04-20T11:27:39.826Z,57.84
2023-04-20T11:34:23.708Z,58.58
2023-04-20T11:41:07.867Z,58.78
2023-04-20T11:47:50.997Z,56.98
2023-04-20T11:54:35.081Z,56.58
2023-04-20T12:01:17.232Z,57.21
2023-04-20T12:07:59.376Z,55.58
2023-04-20T12:14:41.504Z,54.41
2023-04-20T12:21:23.834Z,54.64
2023-04-20T12:28:07.422Z,53.37
2023-04-20T12:34:49.654Z,52.67
2023-04-20T12:41:31.960Z,53.06
2023-04-20T12:48:14.392Z,52.17
2023-04-20T12:54:56.569Z,52.11
2023-04-20T13:01:38.775Z,52.63
2023-04-20T13:08:21.726Z,51.60
2023-04-20T13:15:04.527Z,51.65
2023-04-20T13:21:47.048Z,51.32
2023-04-20T13:28:29.232Z,50.88
2023-04-20T13:35:12.483Z,50.32
2023-04-20T13:41:54.676Z,49.74
2023-04-20T13:48:37.365Z,50.33
2023-04-20T13:55:20.794Z,50.50
2023-04-20T14:02:03.119Z,51.05
2023-04-20T14:08:45.524Z,51.55
2023-04-20T14:15:28.334Z,51.00
2023-04-20T14:22:10.794Z,49.49
2023-04-20T14:28:53.895Z,49.18
2023-04-20T14:35:36.378Z,49.49
2023-04-20T14:42:18.677Z,48.89
2023-04-20T14:49:00.788Z,49.32
2023-04-20T14:55:42.937Z,50.05
2023-04-20T15:02:25.591Z,50.59
2023-04-20T15:09:08.012Z,51.71
2023-04-20T15:15:51.943Z,51.94
2023-04-20T15:22:37.206Z,51.96
2023-04-20T15:29:21.667Z,52.03
2023-04-20T15:36:04.022Z,51.90
2023-04-20T15:42:46.153Z,53.22
2023-04-20T15:49:28.251Z,53.11
2023-04-20T15:56:10.373Z,53.47
2023-04-20T16:02:54.241Z,54.10
2023-04-20T16:09:36.716Z,54.04
2023-04-20T16:16:19.124Z,54.83
2023-04-20T16:23:01.609Z,55.33
2023-04-20T16:29:43.792Z,55.91
2023-04-20T16:36:27.127Z,56.17
2023-04-20T16:43:09.667Z,56.60
2023-04-20T16:49:51.825Z,57.07
2023-04-20T16:56:33.962Z,58.22
2023-04-20T17:03:16.381Z,58.93
2023-04-20T17:09:59.269Z,59.59
2023-04-20T17:16:41.470Z,59.98
2023-04-20T17:23:24.071Z,59.87
2023-04-20T17:30:07.149Z,59.89
2023-04-20T17:36:49.290Z,60.28
2023-04-20T17:43:31.771Z,61.22
2023-04-20T17:50:16.320Z,61.78
2023-04-20T17:56:58.460Z,62.34
2023-04-20T18:03:40.973Z,63.09
2023-04-20T18:10:23.195Z,63.21
2023-04-20T18:17:05.400Z,63.42
2023-04-20T18:23:47.882Z,63.63
2023-04-20T18:30:30.381Z,63.18
2023-04-20T18:37:13.041Z,63.46
2023-04-20T18:43:56.619Z,63.83
2023-04-20T18:50:38.763Z,65.07
2023-04-20T18:57:26.034Z,66.16
2023-04-20T19:04:09.002Z,66.74
2023-04-20T19:10:54.005Z,66.45
2023-04-20T19:17:36.617Z,66.96
2023-04-20T19:24:19.446Z,66.74
2023-04-20T19:31:02.095Z,67.21
2023-04-20T19:37:44.313Z,67.58
2023-04-20T19:44:27.846Z,68.06
2023-04-20T19:51:11.608Z,67.97
2023-04-20T19:57:53.823Z,68.17
2023-04-20T20:04:37.811Z,68.50
2023-04-20T20:11:22.086Z,68.60
2023-04-20T20:18:04.900Z,68.70
2023-04-20T20:24:47.948Z,68.98
2023-04-20T20:31:30.279Z,69.36
2023-04-20T20:38:12.641Z,69.72
2023-04-20T20:44:55.152Z,70.00
2023-04-20T20:51:37.320Z,70.18
2023-04-20T20:58:19.669Z,70.36
2023-04-20T21:05:02.060Z,70.68
2023-04-20T21:11:44.386Z,70.94
2023-04-20T21:18:27.098Z,71.00
2023-04-20T21:25:09.859Z,70.61
2023-04-20T21:31:52.336Z,70.40
2023-04-20T21:38:34.905Z,70.42
2023-04-20T21:45:17.236Z,69.85
2023-04-20T21:51:59.458Z,70.10
2023-04-20T21:58:41.777Z,70.01
2023-04-20T22:05:24.095Z,70.54
2023-04-20T22:12:06.665Z,70.88
2023-04-20T22:18:49.680Z,71.46
2023-04-20T22:25:32.158Z,72.29
2023-04-20T22:32:14.300Z,72.60
2023-04-20T22:38:56.540Z,72.85
2023-04-20T22:45:38.658Z,73.07
2023-04-20T22:52:21.269Z,73.50
2023-04-20T22:59:03.839Z,73.81
2023-04-20T23:05:45.995Z,73.93
2023-04-20T23:12:32.423Z,74.59
2023-04-20T23:19:14.542Z,74.89
2023-04-20T23:25:57.259Z,75.85
2023-04-20T23:32:39.476Z,76.30
2023-04-20T23:39:21.864Z,76.49
2023-04-20T23:46:07.692Z,77.09
2023-04-20T23:52:50.092Z,77.30
2023-04-20T23:59:33.682Z,77.50
